Terminal Aerodrome Forecast
Issued by NWS Knoxville/Tri Cities, TN

Home | Current Version | Previous Version | Text Only | Print | Product List | Glossary On
Versions: 1 2 3 4 5 6 7 8 9 10 11 12 13 14 15
000
FTUS44 KMRX 280531
TAFTRI
TAF
KTRI 280531Z 2806/2906 26010KT 6SM -SHRA SCT030 BKN045
     FM280900 27008KT 6SM BR VCSH SCT030 BKN080
     FM281200 28010KT P6SM VCSH BKN030
     FM281800 27011KT P6SM VCSH BKN040
     FM290100 VRB03KT P6SM BKN040=

USA.gov is the U.S. government's official web portal to all federal, state and local government web resources and services.